King of Scandinavia — OVOL2 — position and weather

sailwx.info

Track history (hours):
 
Tides and Currents Weather Stations Pressure Air Temp Water Temp Dewpoint Dewpoint Depression Visibility Wind Speed Wind Dir Waves Ship Positions

King of Scandinavia

Ship's website: http://www.dfds.co.uk/DSW/EN/OnBoard/na/KING.htm

Last reported at 2016-Feb-09 19:31 UTC. Time now 2016-Feb-09 20:35 UTC.
Position N 52°58' E 003°37'.

Length 166 m; beam 27.6 m; draft 6.2 m.

Type: Passenger vessel. MMSI: 220449000.

Date/timePositionNaut miles runAvg speedWind from/ knotsBaromVisibWave heightAir tempDewpointWater temp
2016-Feb-09 19:31N 52°58' E 003°37'1516.0
2016-Feb-09 18:33N 52°48' E 003°57'1716.6
2016-Feb-09 17:33N 52°37' E 004°16'1414.4
2016-Feb-09 16:33N 52°28' E 004°35'0 0.0
2016-Feb-09 15:32N 52°28' E 004°35'0 0.0
2016-Feb-09 14:32N 52°28' E 004°35'0 0.0
2016-Feb-09 13:32N 52°28' E 004°35'0 0.0
2016-Feb-09 12:32N 52°28' E 004°35'0 0.0
2016-Feb-09 11:32N 52°28' E 004°35'0 0.0
2016-Feb-09 10:32N 52°28' E 004°35'0 0.0
2016-Feb-09 09:32N 52°28' E 004°35'5 5.4
2016-Feb-09 08:34N 52°28' E 004°27'1918.7
2016-Feb-09 07:33N 52°28' E 003°55'2018.8
2016-Feb-09 06:27N 52°29' E 003°22'4318.8
2016-Feb-09 04:11N 52°43' E 002°15'1118.0
2016-Feb-09 03:33N 52°47' E 001°58'1716.7
2016-Feb-09 02:34N 52°57' E 001°35'1716.6
2016-Feb-09 01:34N 53°10' E 001°19'5616.3
2016-Feb-08 22:08N 53°56' E 000°26'1016.6
2016-Feb-08 21:33N 54°03' E 000°14'1716.6
2016-Feb-08 20:34N 54°15' W 000°04'1717.2
2016-Feb-08 19:34N 54°29' W 000°22'1919.0
2016-Feb-08 18:33N 54°43' W 000°45'2019.9
2016-Feb-08 17:33N 54°55' W 001°12'34 3.0
2016-Feb-08 06:20N 54°32' W 000°29'1317.0
2016-Feb-08 05:33N 54°22' W 000°14'1616.0
2016-Feb-08 04:33N 54°10' E 000°04'1615.6
2016-Feb-08 03:33N 53°58' E 000°22'5917.3
2016-Feb-08 00:09N 53°11' E 001°22'1220.3
2016-Feb-07 23:33N 53°06' E 001°40'10015.9
2016-Feb-07 17:17N 52°31' E 004°14'1216.6
2016-Feb-07 16:34N 52°28' E 004°34'1 0.7
2016-Feb-07 15:32N 52°28' E 004°35'0 0.0
2016-Feb-07 14:32N 52°28' E 004°35'0 0.0
2016-Feb-07 13:32N 52°28' E 004°35'0 0.0
2016-Feb-07 12:32N 52°28' E 004°35'0 0.0
2016-Feb-07 11:32N 52°28' E 004°35'0 0.0
2016-Feb-07 10:29N 52°28' E 004°35'0 0.0
2016-Feb-07 09:32N 52°28' E 004°35'4 4.0
2016-Feb-07 08:33N 52°28' E 004°29'1918.4
2016-Feb-07 07:33N 52°28' E 003°58'7318.3
2016-Feb-07 03:33N 52°46' E 002°01'1818.2
2016-Feb-07 02:33N 52°55' E 001°36'1817.9
2016-Feb-07 01:34N 53°10' E 001°20'1918.0
2016-Feb-07 00:30N 53°27' E 001°04'3817.0
2016-Feb-06 22:15N 53°57' E 000°24'1216.9
2016-Feb-06 21:33N 54°05' E 000°10'1716.8
2016-Feb-06 20:33N 54°18' W 000°08'1716.9
2016-Feb-06 19:33N 54°31' W 000°26'1717.2
2016-Feb-06 18:33N 54°44' W 000°47'1918.5
2016-Feb-06 17:33N 54°55' W 001°13'10 1.0
2016-Feb-06 07:33N 54°51' W 000°56'1818.6
2016-Feb-06 06:33N 54°41' W 000°29'1818.2
2016-Feb-06 05:34N 54°31' W 000°04'1817.6
2016-Feb-06 04:33N 54°21' E 000°22'1816.7
2016-Feb-06 03:29N 54°12' E 000°47'13715.3
2016-Feb-05 18:32N 52°49' E 003°52'1414.8
2016-Feb-05 17:33N 52°40' E 004°10'1716.9
2016-Feb-05 16:33N 52°28' E 004°31'3 2.7
2016-Feb-05 15:31N 52°28' E 004°35'0 0.0
2016-Feb-05 14:31N 52°28' E 004°35'0 0.0
2016-Feb-05 13:31N 52°28' E 004°35'0 0.0
2016-Feb-05 12:31N 52°28' E 004°35'0 0.0
2016-Feb-05 11:31N 52°28' E 004°35'0 0.0
2016-Feb-05 10:31N 52°28' E 004°35'0 0.0
2016-Feb-05 09:31N 52°28' E 004°35'0 0.1
2016-Feb-05 08:33N 52°28' E 004°35'1414.0
2016-Feb-05 07:33N 52°36' E 004°16'1817.9
2016-Feb-05 06:33N 52°48' E 003°54'14317.9
2016-Feb-04 22:33N 54°13' E 000°41'1717.5
2016-Feb-04 21:33N 54°23' E 000°17'1717.2
2016-Feb-04 20:33N 54°32' W 000°08'1716.9
2016-Feb-04 19:33N 54°42' W 000°33'1717.0
2016-Feb-04 18:33N 54°51' W 000°58'3 0.3
2016-Feb-04 07:33N 54°53' W 001°02'1414.4
2016-Feb-04 06:33N 54°45' W 000°41'1514.9
2016-Feb-04 05:33N 54°37' W 000°19'1515.3
2016-Feb-04 04:33N 54°29' E 000°03'1616.1
2016-Feb-04 03:33N 54°20' E 000°26'15016.4
2016-Feb-03 18:25N 52°50' E 003°49'1415.9
2016-Feb-03 17:33N 52°41' E 004°06'1615.7
2016-Feb-03 16:33N 52°31' E 004°25'7 6.7
2016-Feb-03 15:33N 52°28' E 004°35'0 0.0
2016-Feb-03 14:33N 52°28' E 004°35'0 0.0
2016-Feb-03 13:33N 52°28' E 004°35'0 0.0
2016-Feb-03 12:33N 52°28' E 004°35'0 0.0
2016-Feb-03 11:33N 52°28' E 004°35'0 0.0
2016-Feb-03 10:33N 52°28' E 004°35'0 0.0
2016-Feb-03 09:33N 52°28' E 004°35'0 0.0
2016-Feb-03 08:33N 52°28' E 004°35'1110.7
2016-Feb-03 07:33N 52°34' E 004°20'15917.2
2016-Feb-02 22:17N 54°09' E 000°46'1317.8
2016-Feb-02 21:34N 54°15' E 000°27'1817.9
2016-Feb-02 20:33N 54°24' E 000°01'1818.0
2016-Feb-02 19:34N 54°33' W 000°26'1818.1
2016-Feb-02 18:33N 54°45' W 000°51'1818.0
2016-Feb-02 17:33N 54°57' W 001°14'8 1.3
2016-Feb-02 11:33N 54°59' W 001°27'0 0.0
2016-Feb-02 10:32N 54°59' W 001°27'8 8.3
2016-Feb-02 09:34N 54°57' W 001°14'1616.1
2016-Feb-02 08:33N 54°46' W 000°53'1615.7
2016-Feb-02 07:32N 54°35' W 000°33'1616.4
2016-Feb-02 06:34N 54°23' W 000°15'1716.6
2016-Feb-02 05:34N 54°10' E 000°04'1716.6
2016-Feb-02 04:34N 53°59' E 000°24'6516.0
2016-Feb-02 00:29N 53°08' E 001°33'1414.7
2016-Feb-01 23:33N 53°02' E 001°54'9114.9
2016-Feb-01 17:26N 52°30' E 004°16'1213.9
2016-Feb-01 16:34N 52°28' E 004°35'0 0.3
2016-Feb-01 15:32N 52°28' E 004°35'0 0.0
2016-Feb-01 14:32N 52°28' E 004°35'0 0.0
2016-Feb-01 13:32N 52°28' E 004°35'0 0.0
2016-Feb-01 12:32N 52°28' E 004°35'0 0.0
2016-Feb-01 11:32N 52°28' E 004°35'0 0.0
2016-Feb-01 10:32N 52°28' E 004°35'0 0.0
2016-Feb-01 09:32N 52°28' E 004°35'6 6.2
2016-Feb-01 08:33N 52°29' E 004°26'10 9.4
2016-Feb-01 07:32N 52°37' E 004°16'15416.5
2016-Jan-31 22:15N 54°10' E 000°51'1318.4
2016-Jan-31 21:33N 54°17' E 000°33'1818.5
2016-Jan-31 20:33N 54°27' E 000°06'1918.7
2016-Jan-31 19:33N 54°37' W 000°21'1918.6
2016-Jan-31 18:33N 54°47' W 000°48'1818.4
2016-Jan-31 17:33N 54°57' W 001°15'7 7.2
2016-Jan-31 16:33N 54°59' W 001°27'0 0.0
2016-Jan-31 13:28N 54°59' W 001°27'0 0.0
2016-Jan-31 10:31N 54°59' W 001°27'0 0.0
2016-Jan-31 09:32N 54°59' W 001°27'9 9.1
2016-Jan-31 08:33N 54°56' W 001°13'1817.6
2016-Jan-31 07:33N 54°44' W 000°51'1918.9
2016-Jan-31 06:33N 54°31' W 000°27'1919.1
2016-Jan-31 05:33N 54°16' W 000°06'1919.4
2016-Jan-31 04:33N 54°02' E 000°16'6618.9
2016-Jan-31 01:05N 53°09' E 001°22'916.9
2016-Jan-31 00:33N 53°02' E 001°31'1515.3
2016-Jan-30 23:33N 52°50' E 001°48'  
Track history (hours):
 
Tides and Currents Weather Stations Pressure Air Temp Water Temp Dewpoint Dewpoint Depression Visibility Wind Speed Wind Dir Waves Ship Positions

King of Scandinavia

Ship's website: http://www.dfds.co.uk/DSW/EN/OnBoard/na/KING.htm

Last reported at 2016-Feb-09 19:31 UTC. Time now 2016-Feb-09 20:35 UTC.
Position N 52°58' E 003°37'.

Length 166 m; beam 27.6 m; draft 6.2 m.

Type: Passenger vessel. MMSI: 220449000.

Date/timePositionNaut miles runAvg speedWind from/ knotsBaromVisibWave heightAir tempDewpointWater temp
2016-Feb-09 19:31N 52°58' E 003°37'1516.0
2016-Feb-09 18:33N 52°48' E 003°57'1716.6
2016-Feb-09 17:33N 52°37' E 004°16'1414.4
2016-Feb-09 16:33N 52°28' E 004°35'0 0.0
2016-Feb-09 15:32N 52°28' E 004°35'0 0.0
2016-Feb-09 14:32N 52°28' E 004°35'0 0.0
2016-Feb-09 13:32N 52°28' E 004°35'0 0.0
2016-Feb-09 12:32N 52°28' E 004°35'0 0.0
2016-Feb-09 11:32N 52°28' E 004°35'0 0.0
2016-Feb-09 10:32N 52°28' E 004°35'0 0.0
2016-Feb-09 09:32N 52°28' E 004°35'5 5.4
2016-Feb-09 08:34N 52°28' E 004°27'1918.7
2016-Feb-09 07:33N 52°28' E 003°55'2018.8
2016-Feb-09 06:27N 52°29' E 003°22'4318.8
2016-Feb-09 04:11N 52°43' E 002°15'1118.0
2016-Feb-09 03:33N 52°47' E 001°58'1716.7
2016-Feb-09 02:34N 52°57' E 001°35'1716.6
2016-Feb-09 01:34N 53°10' E 001°19'5616.3
2016-Feb-08 22:08N 53°56' E 000°26'1016.6
2016-Feb-08 21:33N 54°03' E 000°14'1716.6
2016-Feb-08 20:34N 54°15' W 000°04'1717.2
2016-Feb-08 19:34N 54°29' W 000°22'1919.0
2016-Feb-08 18:33N 54°43' W 000°45'2019.9
2016-Feb-08 17:33N 54°55' W 001°12'34 3.0
2016-Feb-08 06:20N 54°32' W 000°29'1317.0
2016-Feb-08 05:33N 54°22' W 000°14'1616.0
2016-Feb-08 04:33N 54°10' E 000°04'1615.6
2016-Feb-08 03:33N 53°58' E 000°22'5917.3
2016-Feb-08 00:09N 53°11' E 001°22'1220.3
2016-Feb-07 23:33N 53°06' E 001°40'10015.9
2016-Feb-07 17:17N 52°31' E 004°14'1216.6
2016-Feb-07 16:34N 52°28' E 004°34'1 0.7
2016-Feb-07 15:32N 52°28' E 004°35'0 0.0
2016-Feb-07 14:32N 52°28' E 004°35'0 0.0
2016-Feb-07 13:32N 52°28' E 004°35'0 0.0
2016-Feb-07 12:32N 52°28' E 004°35'0 0.0
2016-Feb-07 11:32N 52°28' E 004°35'0 0.0
2016-Feb-07 10:29N 52°28' E 004°35'0 0.0
2016-Feb-07 09:32N 52°28' E 004°35'4 4.0
2016-Feb-07 08:33N 52°28' E 004°29'1918.4
2016-Feb-07 07:33N 52°28' E 003°58'7318.3
2016-Feb-07 03:33N 52°46' E 002°01'1818.2
2016-Feb-07 02:33N 52°55' E 001°36'1817.9
2016-Feb-07 01:34N 53°10' E 001°20'1918.0
2016-Feb-07 00:30N 53°27' E 001°04'3817.0
2016-Feb-06 22:15N 53°57' E 000°24'1216.9
2016-Feb-06 21:33N 54°05' E 000°10'1716.8
2016-Feb-06 20:33N 54°18' W 000°08'1716.9
2016-Feb-06 19:33N 54°31' W 000°26'1717.2
2016-Feb-06 18:33N 54°44' W 000°47'1918.5
2016-Feb-06 17:33N 54°55' W 001°13'10 1.0
2016-Feb-06 07:33N 54°51' W 000°56'1818.6
2016-Feb-06 06:33N 54°41' W 000°29'1818.2
2016-Feb-06 05:34N 54°31' W 000°04'1817.6
2016-Feb-06 04:33N 54°21' E 000°22'1816.7
2016-Feb-06 03:29N 54°12' E 000°47'13715.3
2016-Feb-05 18:32N 52°49' E 003°52'1414.8
2016-Feb-05 17:33N 52°40' E 004°10'1716.9
2016-Feb-05 16:33N 52°28' E 004°31'3 2.7
2016-Feb-05 15:31N 52°28' E 004°35'0 0.0
2016-Feb-05 14:31N 52°28' E 004°35'0 0.0
2016-Feb-05 13:31N 52°28' E 004°35'0 0.0
2016-Feb-05 12:31N 52°28' E 004°35'0 0.0
2016-Feb-05 11:31N 52°28' E 004°35'0 0.0
2016-Feb-05 10:31N 52°28' E 004°35'0 0.0
2016-Feb-05 09:31N 52°28' E 004°35'0 0.1
2016-Feb-05 08:33N 52°28' E 004°35'1414.0
2016-Feb-05 07:33N 52°36' E 004°16'1817.9
2016-Feb-05 06:33N 52°48' E 003°54'14317.9
2016-Feb-04 22:33N 54°13' E 000°41'1717.5
2016-Feb-04 21:33N 54°23' E 000°17'1717.2
2016-Feb-04 20:33N 54°32' W 000°08'1716.9
2016-Feb-04 19:33N 54°42' W 000°33'1717.0
2016-Feb-04 18:33N 54°51' W 000°58'3 0.3
2016-Feb-04 07:33N 54°53' W 001°02'1414.4
2016-Feb-04 06:33N 54°45' W 000°41'1514.9
2016-Feb-04 05:33N 54°37' W 000°19'1515.3
2016-Feb-04 04:33N 54°29' E 000°03'1616.1
2016-Feb-04 03:33N 54°20' E 000°26'15016.4
2016-Feb-03 18:25N 52°50' E 003°49'1415.9
2016-Feb-03 17:33N 52°41' E 004°06'1615.7
2016-Feb-03 16:33N 52°31' E 004°25'7 6.7
2016-Feb-03 15:33N 52°28' E 004°35'0 0.0
2016-Feb-03 14:33N 52°28' E 004°35'0 0.0
2016-Feb-03 13:33N 52°28' E 004°35'0 0.0
2016-Feb-03 12:33N 52°28' E 004°35'0 0.0
2016-Feb-03 11:33N 52°28' E 004°35'0 0.0
2016-Feb-03 10:33N 52°28' E 004°35'0 0.0
2016-Feb-03 09:33N 52°28' E 004°35'0 0.0
2016-Feb-03 08:33N 52°28' E 004°35'1110.7
2016-Feb-03 07:33N 52°34' E 004°20'15917.2
2016-Feb-02 22:17N 54°09' E 000°46'1317.8
2016-Feb-02 21:34N 54°15' E 000°27'1817.9
2016-Feb-02 20:33N 54°24' E 000°01'1818.0
2016-Feb-02 19:34N 54°33' W 000°26'1818.1
2016-Feb-02 18:33N 54°45' W 000°51'1818.0
2016-Feb-02 17:33N 54°57' W 001°14'8 1.3
2016-Feb-02 11:33N 54°59' W 001°27'0 0.0
2016-Feb-02 10:32N 54°59' W 001°27'8 8.3
2016-Feb-02 09:34N 54°57' W 001°14'1616.1
2016-Feb-02 08:33N 54°46' W 000°53'1615.7
2016-Feb-02 07:32N 54°35' W 000°33'1616.4
2016-Feb-02 06:34N 54°23' W 000°15'1716.6
2016-Feb-02 05:34N 54°10' E 000°04'1716.6
2016-Feb-02 04:34N 53°59' E 000°24'6516.0
2016-Feb-02 00:29N 53°08' E 001°33'1414.7
2016-Feb-01 23:33N 53°02' E 001°54'9114.9
2016-Feb-01 17:26N 52°30' E 004°16'1213.9
2016-Feb-01 16:34N 52°28' E 004°35'0 0.3
2016-Feb-01 15:32N 52°28' E 004°35'0 0.0
2016-Feb-01 14:32N 52°28' E 004°35'0 0.0
2016-Feb-01 13:32N 52°28' E 004°35'0 0.0
2016-Feb-01 12:32N 52°28' E 004°35'0 0.0
2016-Feb-01 11:32N 52°28' E 004°35'0 0.0
2016-Feb-01 10:32N 52°28' E 004°35'0 0.0
2016-Feb-01 09:32N 52°28' E 004°35'6 6.2
2016-Feb-01 08:33N 52°29' E 004°26'10 9.4
2016-Feb-01 07:32N 52°37' E 004°16'15416.5
2016-Jan-31 22:15N 54°10' E 000°51'1318.4
2016-Jan-31 21:33N 54°17' E 000°33'1818.5
2016-Jan-31 20:33N 54°27' E 000°06'1918.7
2016-Jan-31 19:33N 54°37' W 000°21'1918.6
2016-Jan-31 18:33N 54°47' W 000°48'1818.4
2016-Jan-31 17:33N 54°57' W 001°15'7 7.2
2016-Jan-31 16:33N 54°59' W 001°27'0 0.0
2016-Jan-31 13:28N 54°59' W 001°27'0 0.0
2016-Jan-31 10:31N 54°59' W 001°27'0 0.0
2016-Jan-31 09:32N 54°59' W 001°27'9 9.1
2016-Jan-31 08:33N 54°56' W 001°13'1817.6
2016-Jan-31 07:33N 54°44' W 000°51'1918.9
2016-Jan-31 06:33N 54°31' W 000°27'1919.1
2016-Jan-31 05:33N 54°16' W 000°06'1919.4
2016-Jan-31 04:33N 54°02' E 000°16'6618.9
2016-Jan-31 01:05N 53°09' E 001°22'916.9
2016-Jan-31 00:33N 53°02' E 001°31'1515.3
2016-Jan-30 23:33N 52°50' E 001°48'  

Dump ship's entire track history